sensor_id;sensor_type;location;lat;lon;timestamp;temperature;humidity
37646;DHT22;23489;49.600;6.138;2022-07-23T00:01:32;20.50;99.90
37646;DHT22;23489;49.600;6.138;2022-07-23T00:03:58;20.50;99.90
37646;DHT22;23489;49.600;6.138;2022-07-23T00:06:24;20.60;99.90
37646;DHT22;23489;49.600;6.138;2022-07-23T00:08:50;20.60;99.90
37646;DHT22;23489;49.600;6.138;2022-07-23T00:11:16;20.70;99.90
37646;DHT22;23489;49.600;6.138;2022-07-23T00:13:41;20.70;99.90
37646;DHT22;23489;49.600;6.138;2022-07-23T00:16:07;20.70;99.90
37646;DHT22;23489;49.600;6.138;2022-07-23T00:18:33;20.70;99.90
37646;DHT22;23489;49.600;6.138;2022-07-23T00:20:58;20.70;99.90
37646;DHT22;23489;49.600;6.138;2022-07-23T00:23:24;20.60;99.90
37646;DHT22;23489;49.600;6.138;2022-07-23T00:25:50;20.60;99.90
37646;DHT22;23489;49.600;6.138;2022-07-23T00:28:17;20.60;99.90
37646;DHT22;23489;49.600;6.138;2022-07-23T00:30:43;20.50;99.90
37646;DHT22;23489;49.600;6.138;2022-07-23T00:33:09;20.40;99.90
37646;DHT22;23489;49.600;6.138;2022-07-23T00:35:35;20.40;99.90
37646;DHT22;23489;49.600;6.138;2022-07-23T00:38:02;20.30;99.90
37646;DHT22;23489;49.600;6.138;2022-07-23T00:40:28;20.20;99.90
37646;DHT22;23489;49.600;6.138;2022-07-23T00:42:54;20.20;99.90
37646;DHT22;23489;49.600;6.138;2022-07-23T00:45:20;20.20;99.90
37646;DHT22;23489;49.600;6.138;2022-07-23T00:47:45;20.20;99.90
37646;DHT22;23489;49.600;6.138;2022-07-23T00:50:12;20.20;99.90
37646;DHT22;23489;49.600;6.138;2022-07-23T00:52:38;20.30;99.90
37646;DHT22;23489;49.600;6.138;2022-07-23T00:55:04;20.20;99.90
37646;DHT22;23489;49.600;6.138;2022-07-23T00:57:30;20.00;99.90
37646;DHT22;23489;49.600;6.138;2022-07-23T00:59:56;19.80;99.90
37646;DHT22;23489;49.600;6.138;2022-07-23T01:02:23;19.80;99.90
37646;DHT22;23489;49.600;6.138;2022-07-23T01:04:49;19.60;99.90
37646;DHT22;23489;49.600;6.138;2022-07-23T01:07:15;19.60;99.90
37646;DHT22;23489;49.600;6.138;2022-07-23T01:09:40;19.50;99.90
37646;DHT22;23489;49.600;6.138;2022-07-23T01:12:07;19.40;99.90
37646;DHT22;23489;49.600;6.138;2022-07-23T01:14:33;19.40;99.90
37646;DHT22;23489;49.600;6.138;2022-07-23T01:16:59;19.30;99.90
37646;DHT22;23489;49.600;6.138;2022-07-23T01:19:25;19.20;99.90
37646;DHT22;23489;49.600;6.138;2022-07-23T01:21:51;19.10;99.90
37646;DHT22;23489;49.600;6.138;2022-07-23T01:24:17;19.10;99.90
37646;DHT22;23489;49.600;6.138;2022-07-23T01:27:02;19.10;99.90
37646;DHT22;23489;49.600;6.138;2022-07-23T01:29:30;19.10;99.90
37646;DHT22;23489;49.600;6.138;2022-07-23T01:31:59;19.10;99.90
37646;DHT22;23489;49.600;6.138;2022-07-23T01:34:25;19.10;99.90
37646;DHT22;23489;49.600;6.138;2022-07-23T01:36:50;19.20;99.90
37646;DHT22;23489;49.600;6.138;2022-07-23T01:39:17;19.20;99.90
37646;DHT22;23489;49.600;6.138;2022-07-23T01:41:42;19.20;99.90
37646;DHT22;23489;49.600;6.138;2022-07-23T01:44:08;19.30;99.90
37646;DHT22;23489;49.600;6.138;2022-07-23T01:46:34;19.30;99.90
37646;DHT22;23489;49.600;6.138;2022-07-23T01:49:01;19.30;99.90
37646;DHT22;23489;49.600;6.138;2022-07-23T01:51:45;19.30;99.90
37646;DHT22;23489;49.600;6.138;2022-07-23T01:54:31;19.20;99.90
37646;DHT22;23489;49.600;6.138;2022-07-23T01:56:58;19.20;99.90
37646;DHT22;23489;49.600;6.138;2022-07-23T01:59:24;19.20;99.90
37646;DHT22;23489;49.600;6.138;2022-07-23T02:01:50;19.20;99.90
37646;DHT22;23489;49.600;6.138;2022-07-23T02:04:17;19.20;99.90
37646;DHT22;23489;49.600;6.138;2022-07-23T02:06:43;19.10;99.90
37646;DHT22;23489;49.600;6.138;2022-07-23T02:09:09;19.10;99.90
37646;DHT22;23489;49.600;6.138;2022-07-23T02:11:34;19.10;99.90
37646;DHT22;23489;49.600;6.138;2022-07-23T02:14:00;19.10;99.90
37646;DHT22;23489;49.600;6.138;2022-07-23T02:16:25;19.10;99.90
37646;DHT22;23489;49.600;6.138;2022-07-23T02:18:51;19.10;99.90
37646;DHT22;23489;49.600;6.138;2022-07-23T02:21:16;19.00;99.90
37646;DHT22;23489;49.600;6.138;2022-07-23T02:23:42;19.00;99.90
37646;DHT22;23489;49.600;6.138;2022-07-23T02:26:07;19.00;99.90
37646;DHT22;23489;49.600;6.138;2022-07-23T02:28:33;19.00;99.90
37646;DHT22;23489;49.600;6.138;2022-07-23T02:30:58;18.90;99.90
37646;DHT22;23489;49.600;6.138;2022-07-23T02:33:24;18.90;99.90
37646;DHT22;23489;49.600;6.138;2022-07-23T02:35:50;18.90;99.90
37646;DHT22;23489;49.600;6.138;2022-07-23T02:38:17;19.00;99.90
37646;DHT22;23489;49.600;6.138;2022-07-23T02:40:44;18.90;99.90
37646;DHT22;23489;49.600;6.138;2022-07-23T02:43:10;18.90;99.90
37646;DHT22;23489;49.600;6.138;2022-07-23T02:45:38;18.90;99.90
37646;DHT22;23489;49.600;6.138;2022-07-23T02:48:03;18.90;99.90
37646;DHT22;23489;49.600;6.138;2022-07-23T02:50:29;18.90;99.90
37646;DHT22;23489;49.600;6.138;2022-07-23T02:52:57;18.80;99.90
37646;DHT22;23489;49.600;6.138;2022-07-23T02:55:24;18.80;99.90
37646;DHT22;23489;49.600;6.138;2022-07-23T02:57:49;18.70;99.90
37646;DHT22;23489;49.600;6.138;2022-07-23T03:00:15;18.60;99.90
37646;DHT22;23489;49.600;6.138;2022-07-23T03:02:40;18.50;99.90
37646;DHT22;23489;49.600;6.138;2022-07-23T03:05:06;18.40;99.90
37646;DHT22;23489;49.600;6.138;2022-07-23T03:07:33;18.30;99.90
37646;DHT22;23489;49.600;6.138;2022-07-23T03:09:58;18.20;99.90
37646;DHT22;23489;49.600;6.138;2022-07-23T03:12:24;18.20;99.90
37646;DHT22;23489;49.600;6.138;2022-07-23T03:14:50;18.10;99.90
37646;DHT22;23489;49.600;6.138;2022-07-23T03:17:16;18.10;99.90
37646;DHT22;23489;49.600;6.138;2022-07-23T03:19:41;18.00;99.90
37646;DHT22;23489;49.600;6.138;2022-07-23T03:22:08;18.00;99.90
37646;DHT22;23489;49.600;6.138;2022-07-23T03:24:33;18.00;99.90
37646;DHT22;23489;49.600;6.138;2022-07-23T03:27:19;18.00;99.90
37646;DHT22;23489;49.600;6.138;2022-07-23T03:29:44;18.00;99.90
37646;DHT22;23489;49.600;6.138;2022-07-23T03:32:10;18.00;99.90
37646;DHT22;23489;49.600;6.138;2022-07-23T03:34:38;18.00;99.90
37646;DHT22;23489;49.600;6.138;2022-07-23T03:37:04;18.00;99.90
37646;DHT22;23489;49.600;6.138;2022-07-23T03:39:29;17.90;99.90
37646;DHT22;23489;49.600;6.138;2022-07-23T03:41:55;17.90;99.90
37646;DHT22;23489;49.600;6.138;2022-07-23T03:44:21;17.90;99.90
37646;DHT22;23489;49.600;6.138;2022-07-23T03:46:46;17.90;99.90
37646;DHT22;23489;49.600;6.138;2022-07-23T03:49:12;17.80;99.90
37646;DHT22;23489;49.600;6.138;2022-07-23T03:51:38;17.80;99.90
37646;DHT22;23489;49.600;6.138;2022-07-23T03:54:03;17.70;99.90
37646;DHT22;23489;49.600;6.138;2022-07-23T03:56:30;17.70;99.90
37646;DHT22;23489;49.600;6.138;2022-07-23T03:58:56;17.70;99.90
37646;DHT22;23489;49.600;6.138;2022-07-23T04:01:22;17.70;99.90
37646;DHT22;23489;49.600;6.138;2022-07-23T04:03:48;17.60;99.90
37646;DHT22;23489;49.600;6.138;2022-07-23T04:06:13;17.60;99.90
37646;DHT22;23489;49.600;6.138;2022-07-23T04:08:39;17.60;99.90
37646;DHT22;23489;49.600;6.138;2022-07-23T04:11:05;17.60;99.90
37646;DHT22;23489;49.600;6.138;2022-07-23T04:13:30;17.60;99.90
37646;DHT22;23489;49.600;6.138;2022-07-23T04:15:59;17.60;99.90
37646;DHT22;23489;49.600;6.138;2022-07-23T04:18:25;17.60;99.90
37646;DHT22;23489;49.600;6.138;2022-07-23T04:20:56;17.60;99.90
37646;DHT22;23489;49.600;6.138;2022-07-23T04:23:22;17.60;99.90
37646;DHT22;23489;49.600;6.138;2022-07-23T04:25:48;17.60;99.90
37646;DHT22;23489;49.600;6.138;2022-07-23T04:28:14;17.60;99.90
37646;DHT22;23489;49.600;6.138;2022-07-23T04:30:40;17.60;99.90
37646;DHT22;23489;49.600;6.138;2022-07-23T04:33:07;17.60;99.90
37646;DHT22;23489;49.600;6.138;2022-07-23T04:35:36;17.70;99.90
37646;DHT22;23489;49.600;6.138;2022-07-23T04:38:11;17.70;99.90
37646;DHT22;23489;49.600;6.138;2022-07-23T04:40:38;17.70;99.90
37646;DHT22;23489;49.600;6.138;2022-07-23T04:43:03;17.80;99.90
37646;DHT22;23489;49.600;6.138;2022-07-23T04:45:32;17.80;99.90
37646;DHT22;23489;49.600;6.138;2022-07-23T04:47:57;17.80;99.90
37646;DHT22;23489;49.600;6.138;2022-07-23T04:50:23;17.80;99.90
37646;DHT22;23489;49.600;6.138;2022-07-23T04:52:53;17.90;99.90
37646;DHT22;23489;49.600;6.138;2022-07-23T04:55:18;17.90;99.90
37646;DHT22;23489;49.600;6.138;2022-07-23T04:57:44;17.90;99.90
37646;DHT22;23489;49.600;6.138;2022-07-23T05:00:10;18.00;99.90
37646;DHT22;23489;49.600;6.138;2022-07-23T05:02:35;17.90;99.90
37646;DHT22;23489;49.600;6.138;2022-07-23T05:05:01;17.80;99.90
37646;DHT22;23489;49.600;6.138;2022-07-23T05:07:27;17.90;99.90
37646;DHT22;23489;49.600;6.138;2022-07-23T05:09:53;17.90;99.90
37646;DHT22;23489;49.600;6.138;2022-07-23T05:12:19;17.90;99.90
37646;DHT22;23489;49.600;6.138;2022-07-23T05:14:45;17.90;99.90
37646;DHT22;23489;49.600;6.138;2022-07-23T05:17:11;18.00;99.90
37646;DHT22;23489;49.600;6.138;2022-07-23T05:19:36;18.10;99.90
37646;DHT22;23489;49.600;6.138;2022-07-23T05:22:02;18.10;99.90
37646;DHT22;23489;49.600;6.138;2022-07-23T05:24:27;18.10;99.90
37646;DHT22;23489;49.600;6.138;2022-07-23T05:26:53;18.30;99.90
37646;DHT22;23489;49.600;6.138;2022-07-23T05:29:19;18.30;99.90
37646;DHT22;23489;49.600;6.138;2022-07-23T05:31:45;18.50;99.90
37646;DHT22;23489;49.600;6.138;2022-07-23T05:34:11;18.70;99.90
37646;DHT22;23489;49.600;6.138;2022-07-23T05:36:37;18.70;99.90
37646;DHT22;23489;49.600;6.138;2022-07-23T05:39:03;18.80;99.90
37646;DHT22;23489;49.600;6.138;2022-07-23T05:41:32;18.90;99.90
37646;DHT22;23489;49.600;6.138;2022-07-23T05:43:58;19.00;99.90
37646;DHT22;23489;49.600;6.138;2022-07-23T05:46:24;19.10;99.90
37646;DHT22;23489;49.600;6.138;2022-07-23T05:48:55;19.10;99.90
37646;DHT22;23489;49.600;6.138;2022-07-23T05:51:40;19.20;99.90
37646;DHT22;23489;49.600;6.138;2022-07-23T05:54:05;19.20;99.90
37646;DHT22;23489;49.600;6.138;2022-07-23T05:56:35;19.30;99.90
37646;DHT22;23489;49.600;6.138;2022-07-23T05:59:00;19.50;99.90
37646;DHT22;23489;49.600;6.138;2022-07-23T06:01:26;19.60;99.90
37646;DHT22;23489;49.600;6.138;2022-07-23T06:04:02;19.80;99.90
37646;DHT22;23489;49.600;6.138;2022-07-23T06:06:33;19.80;99.90
37646;DHT22;23489;49.600;6.138;2022-07-23T06:09:00;20.10;99.90
37646;DHT22;23489;49.600;6.138;2022-07-23T06:11:26;20.10;99.90
37646;DHT22;23489;49.600;6.138;2022-07-23T06:13:52;20.20;99.90
37646;DHT22;23489;49.600;6.138;2022-07-23T06:16:21;20.50;99.90
37646;DHT22;23489;49.600;6.138;2022-07-23T06:18:46;20.80;99.90
37646;DHT22;23489;49.600;6.138;2022-07-23T06:21:13;21.10;99.90
37646;DHT22;23489;49.600;6.138;2022-07-23T06:23:40;21.50;99.90
37646;DHT22;23489;49.600;6.138;2022-07-23T06:26:05;21.80;99.90
37646;DHT22;23489;49.600;6.138;2022-07-23T06:28:31;22.10;99.90
37646;DHT22;23489;49.600;6.138;2022-07-23T06:30:56;22.90;99.90
37646;DHT22;23489;49.600;6.138;2022-07-23T06:33:22;23.80;99.90
37646;DHT22;23489;49.600;6.138;2022-07-23T06:35:48;24.80;99.90
37646;DHT22;23489;49.600;6.138;2022-07-23T06:38:13;25.00;99.90
37646;DHT22;23489;49.600;6.138;2022-07-23T06:40:41;24.90;99.90
37646;DHT22;23489;49.600;6.138;2022-07-23T06:43:06;25.20;99.90
37646;DHT22;23489;49.600;6.138;2022-07-23T06:45:36;25.60;99.90
37646;DHT22;23489;49.600;6.138;2022-07-23T06:48:02;26.30;99.90
37646;DHT22;23489;49.600;6.138;2022-07-23T06:50:28;26.90;98.90
37646;DHT22;23489;49.600;6.138;2022-07-23T06:52:54;27.20;98.00
37646;DHT22;23489;49.600;6.138;2022-07-23T06:55:19;27.50;97.60
37646;DHT22;23489;49.600;6.138;2022-07-23T06:57:46;28.10;95.70
37646;DHT22;23489;49.600;6.138;2022-07-23T07:00:12;28.70;94.40
37646;DHT22;23489;49.600;6.138;2022-07-23T07:02:37;29.00;94.00
37646;DHT22;23489;49.600;6.138;2022-07-23T07:05:04;28.80;94.30
37646;DHT22;23489;49.600;6.138;2022-07-23T07:07:30;29.70;93.00
37646;DHT22;23489;49.600;6.138;2022-07-23T07:09:55;29.60;92.00
37646;DHT22;23489;49.600;6.138;2022-07-23T07:12:21;29.30;92.20
37646;DHT22;23489;49.600;6.138;2022-07-23T07:14:46;29.70;91.50
37646;DHT22;23489;49.600;6.138;2022-07-23T07:17:12;29.50;91.20
37646;DHT22;23489;49.600;6.138;2022-07-23T07:19:38;29.10;91.90
37646;DHT22;23489;49.600;6.138;2022-07-23T07:22:03;30.20;90.40
37646;DHT22;23489;49.600;6.138;2022-07-23T07:24:29;30.20;90.00
37646;DHT22;23489;49.600;6.138;2022-07-23T07:26:54;30.30;90.40
37646;DHT22;23489;49.600;6.138;2022-07-23T07:29:20;31.00;86.70
37646;DHT22;23489;49.600;6.138;2022-07-23T07:31:46;30.80;86.60
37646;DHT22;23489;49.600;6.138;2022-07-23T07:34:11;31.20;85.90
37646;DHT22;23489;49.600;6.138;2022-07-23T07:36:37;30.90;85.20
37646;DHT22;23489;49.600;6.138;2022-07-23T07:39:06;30.20;86.70
37646;DHT22;23489;49.600;6.138;2022-07-23T07:41:32;29.90;87.30
37646;DHT22;23489;49.600;6.138;2022-07-23T07:43:57;29.90;87.90
37646;DHT22;23489;49.600;6.138;2022-07-23T07:46:23;31.20;85.40
37646;DHT22;23489;49.600;6.138;2022-07-23T07:48:50;31.40;83.90
37646;DHT22;23489;49.600;6.138;2022-07-23T07:51:16;31.90;80.60
37646;DHT22;23489;49.600;6.138;2022-07-23T07:53:42;32.10;78.40
37646;DHT22;23489;49.600;6.138;2022-07-23T07:56:07;32.10;78.50
37646;DHT22;23489;49.600;6.138;2022-07-23T07:58:33;32.10;76.90
37646;DHT22;23489;49.600;6.138;2022-07-23T08:00:59;32.10;75.50
37646;DHT22;23489;49.600;6.138;2022-07-23T08:03:26;32.00;75.80
37646;DHT22;23489;49.600;6.138;2022-07-23T08:05:51;32.40;73.60
37646;DHT22;23489;49.600;6.138;2022-07-23T08:08:18;31.60;75.60
37646;DHT22;23489;49.600;6.138;2022-07-23T08:10:43;31.20;75.50
37646;DHT22;23489;49.600;6.138;2022-07-23T08:13:15;31.30;75.20
37646;DHT22;23489;49.600;6.138;2022-07-23T08:15:42;31.30;76.10
37646;DHT22;23489;49.600;6.138;2022-07-23T08:18:08;32.30;73.40
37646;DHT22;23489;49.600;6.138;2022-07-23T08:20:34;33.30;71.10
37646;DHT22;23489;49.600;6.138;2022-07-23T08:23:03;32.60;71.30
37646;DHT22;23489;49.600;6.138;2022-07-23T08:27:57;32.80;71.70
37646;DHT22;23489;49.600;6.138;2022-07-23T08:30:23;33.60;69.20
37646;DHT22;23489;49.600;6.138;2022-07-23T08:32:56;34.00;67.40
37646;DHT22;23489;49.600;6.138;2022-07-23T08:35:24;33.60;66.70
37646;DHT22;23489;49.600;6.138;2022-07-23T08:37:50;32.50;68.40
37646;DHT22;23489;49.600;6.138;2022-07-23T08:40:16;32.80;68.80
37646;DHT22;23489;49.600;6.138;2022-07-23T08:42:41;32.80;68.70
37646;DHT22;23489;49.600;6.138;2022-07-23T08:45:08;32.70;68.10
37646;DHT22;23489;49.600;6.138;2022-07-23T08:47:37;32.60;68.20
37646;DHT22;23489;49.600;6.138;2022-07-23T08:50:03;31.50;69.70
37646;DHT22;23489;49.600;6.138;2022-07-23T08:52:30;30.80;71.70
37646;DHT22;23489;49.600;6.138;2022-07-23T08:54:57;30.90;71.30
37646;DHT22;23489;49.600;6.138;2022-07-23T08:57:23;31.80;69.80
37646;DHT22;23489;49.600;6.138;2022-07-23T08:59:49;32.20;68.70
37646;DHT22;23489;49.600;6.138;2022-07-23T09:02:14;32.60;67.60
37646;DHT22;23489;49.600;6.138;2022-07-23T09:04:40;32.10;68.40
37646;DHT22;23489;49.600;6.138;2022-07-23T09:07:06;32.30;67.90
37646;DHT22;23489;49.600;6.138;2022-07-23T09:09:31;32.30;68.00
37646;DHT22;23489;49.600;6.138;2022-07-23T09:12:02;33.20;65.40
37646;DHT22;23489;49.600;6.138;2022-07-23T09:14:40;33.90;63.20
37646;DHT22;23489;49.600;6.138;2022-07-23T09:17:15;33.50;62.90
37646;DHT22;23489;49.600;6.138;2022-07-23T09:19:42;33.10;63.80
37646;DHT22;23489;49.600;6.138;2022-07-23T09:22:25;33.30;63.30
37646;DHT22;23489;49.600;6.138;2022-07-23T09:25:09;32.60;64.00
37646;DHT22;23489;49.600;6.138;2022-07-23T09:28:05;31.60;66.20
37646;DHT22;23489;49.600;6.138;2022-07-23T09:30:33;32.20;65.20
37646;DHT22;23489;49.600;6.138;2022-07-23T09:35:50;32.40;64.50
37646;DHT22;23489;49.600;6.138;2022-07-23T09:38:17;32.50;63.70
37646;DHT22;23489;49.600;6.138;2022-07-23T09:40:44;32.00;64.00
37646;DHT22;23489;49.600;6.138;2022-07-23T09:43:10;31.50;65.30
37646;DHT22;23489;49.600;6.138;2022-07-23T09:45:36;31.00;67.00
37646;DHT22;23489;49.600;6.138;2022-07-23T09:48:12;31.80;66.40
37646;DHT22;23489;49.600;6.138;2022-07-23T09:50:39;32.20;64.60
37646;DHT22;23489;49.600;6.138;2022-07-23T09:53:05;32.00;64.40
37646;DHT22;23489;49.600;6.138;2022-07-23T09:55:32;32.20;64.70
37646;DHT22;23489;49.600;6.138;2022-07-23T09:58:01;32.50;64.40
37646;DHT22;23489;49.600;6.138;2022-07-23T10:00:27;31.80;64.50
37646;DHT22;23489;49.600;6.138;2022-07-23T10:02:53;30.90;66.80
37646;DHT22;23489;49.600;6.138;2022-07-23T10:05:43;30.00;69.10
37646;DHT22;23489;49.600;6.138;2022-07-23T10:08:32;29.80;69.50
37646;DHT22;23489;49.600;6.138;2022-07-23T10:11:17;29.50;70.40
37646;DHT22;23489;49.600;6.138;2022-07-23T10:13:51;29.20;71.10
37646;DHT22;23489;49.600;6.138;2022-07-23T10:16:21;28.80;72.10
37646;DHT22;23489;49.600;6.138;2022-07-23T10:18:48;28.40;73.30
37646;DHT22;23489;49.600;6.138;2022-07-23T10:21:21;28.40;73.70
37646;DHT22;23489;49.600;6.138;2022-07-23T10:24:10;28.30;74.30
37646;DHT22;23489;49.600;6.138;2022-07-23T10:34:44;27.40;77.20
37646;DHT22;23489;49.600;6.138;2022-07-23T10:37:20;27.20;77.50
37646;DHT22;23489;49.600;6.138;2022-07-23T10:40:08;27.10;77.20
37646;DHT22;23489;49.600;6.138;2022-07-23T10:42:34;26.80;78.40
37646;DHT22;23489;49.600;6.138;2022-07-23T10:45:00;26.80;78.80
37646;DHT22;23489;49.600;6.138;2022-07-23T10:47:29;26.80;79.10
37646;DHT22;23489;49.600;6.138;2022-07-23T10:58:01;27.00;77.10
37646;DHT22;23489;49.600;6.138;2022-07-23T11:00:27;27.40;77.60
37646;DHT22;23489;49.600;6.138;2022-07-23T11:02:55;27.60;78.00
37646;DHT22;23489;49.600;6.138;2022-07-23T11:05:24;28.40;77.00
37646;DHT22;23489;49.600;6.138;2022-07-23T11:26:42;28.20;75.10
37646;DHT22;23489;49.600;6.138;2022-07-23T11:32:08;27.50;75.90
37646;DHT22;23489;49.600;6.138;2022-07-23T11:34:34;27.70;76.00
37646;DHT22;23489;49.600;6.138;2022-07-23T11:37:01;28.00;76.40
37646;DHT22;23489;49.600;6.138;2022-07-23T11:39:28;28.30;75.90
37646;DHT22;23489;49.600;6.138;2022-07-23T11:41:54;28.40;75.00
37646;DHT22;23489;49.600;6.138;2022-07-23T11:44:30;28.80;74.60
37646;DHT22;23489;49.600;6.138;2022-07-23T11:46:57;28.90;74.20
37646;DHT22;23489;49.600;6.138;2022-07-23T11:49:23;29.00;74.40
37646;DHT22;23489;49.600;6.138;2022-07-23T11:54:30;29.20;73.90
37646;DHT22;23489;49.600;6.138;2022-07-23T11:56:56;28.70;74.60
37646;DHT22;23489;49.600;6.138;2022-07-23T11:59:22;28.60;75.00
37646;DHT22;23489;49.600;6.138;2022-07-23T12:01:55;28.60;74.40
37646;DHT22;23489;49.600;6.138;2022-07-23T12:04:21;28.80;74.80
37646;DHT22;23489;49.600;6.138;2022-07-23T12:06:47;29.10;73.90
37646;DHT22;23489;49.600;6.138;2022-07-23T12:09:12;28.80;73.00
37646;DHT22;23489;49.600;6.138;2022-07-23T12:11:38;28.60;73.60
37646;DHT22;23489;49.600;6.138;2022-07-23T12:14:04;28.60;73.50
37646;DHT22;23489;49.600;6.138;2022-07-23T12:16:29;28.90;72.60
37646;DHT22;23489;49.600;6.138;2022-07-23T12:18:55;28.50;72.10
37646;DHT22;23489;49.600;6.138;2022-07-23T12:21:21;28.10;72.80
37646;DHT22;23489;49.600;6.138;2022-07-23T12:23:48;28.20;72.80
37646;DHT22;23489;49.600;6.138;2022-07-23T12:26:13;28.20;73.00
37646;DHT22;23489;49.600;6.138;2022-07-23T12:28:39;28.60;73.00
37646;DHT22;23489;49.600;6.138;2022-07-23T12:31:07;28.70;71.80
37646;DHT22;23489;49.600;6.138;2022-07-23T12:33:33;28.80;71.60
37646;DHT22;23489;49.600;6.138;2022-07-23T12:36:00;28.90;71.10
37646;DHT22;23489;49.600;6.138;2022-07-23T12:38:27;28.70;71.00
37646;DHT22;23489;49.600;6.138;2022-07-23T12:40:57;28.70;69.50
37646;DHT22;23489;49.600;6.138;2022-07-23T12:43:23;28.70;69.80
37646;DHT22;23489;49.600;6.138;2022-07-23T12:45:54;28.10;71.40
37646;DHT22;23489;49.600;6.138;2022-07-23T12:50:49;28.20;70.90
37646;DHT22;23489;49.600;6.138;2022-07-23T12:53:16;28.30;70.50
37646;DHT22;23489;49.600;6.138;2022-07-23T12:55:42;28.60;69.50
37646;DHT22;23489;49.600;6.138;2022-07-23T12:58:09;28.80;70.20
37646;DHT22;23489;49.600;6.138;2022-07-23T13:03:21;29.10;68.50
37646;DHT22;23489;49.600;6.138;2022-07-23T13:05:46;29.10;68.80
37646;DHT22;23489;49.600;6.138;2022-07-23T13:08:12;28.90;69.00
37646;DHT22;23489;49.600;6.138;2022-07-23T13:10:38;28.70;70.40
37646;DHT22;23489;49.600;6.138;2022-07-23T13:13:08;29.00;69.80
37646;DHT22;23489;49.600;6.138;2022-07-23T13:15:34;29.10;66.90
37646;DHT22;23489;49.600;6.138;2022-07-23T13:17:59;28.80;67.40
37646;DHT22;23489;49.600;6.138;2022-07-23T13:20:25;28.80;67.00
37646;DHT22;23489;49.600;6.138;2022-07-23T13:22:50;28.70;66.80
37646;DHT22;23489;49.600;6.138;2022-07-23T13:25:16;28.40;66.90
37646;DHT22;23489;49.600;6.138;2022-07-23T13:27:41;28.40;68.40
37646;DHT22;23489;49.600;6.138;2022-07-23T13:30:07;28.10;69.60
37646;DHT22;23489;49.600;6.138;2022-07-23T13:32:34;28.20;70.20
37646;DHT22;23489;49.600;6.138;2022-07-23T13:35:00;28.30;70.70
37646;DHT22;23489;49.600;6.138;2022-07-23T13:37:25;28.30;70.00
37646;DHT22;23489;49.600;6.138;2022-07-23T13:39:51;28.30;69.50
37646;DHT22;23489;49.600;6.138;2022-07-23T13:42:17;28.50;69.20
37646;DHT22;23489;49.600;6.138;2022-07-23T13:44:42;28.60;68.70
37646;DHT22;23489;49.600;6.138;2022-07-23T13:47:08;28.90;69.20
37646;DHT22;23489;49.600;6.138;2022-07-23T13:49:34;29.00;69.20
37646;DHT22;23489;49.600;6.138;2022-07-23T13:51:59;29.20;68.90
37646;DHT22;23489;49.600;6.138;2022-07-23T13:54:25;29.30;68.20
37646;DHT22;23489;49.600;6.138;2022-07-23T13:56:50;29.40;68.40
37646;DHT22;23489;49.600;6.138;2022-07-23T13:59:17;29.40;68.40
37646;DHT22;23489;49.600;6.138;2022-07-23T14:01:43;29.30;68.80
37646;DHT22;23489;49.600;6.138;2022-07-23T14:04:09;29.20;69.60
37646;DHT22;23489;49.600;6.138;2022-07-23T14:06:34;29.10;69.20
37646;DHT22;23489;49.600;6.138;2022-07-23T14:09:00;29.20;69.00
37646;DHT22;23489;49.600;6.138;2022-07-23T14:11:25;28.70;68.70
37646;DHT22;23489;49.600;6.138;2022-07-23T14:13:51;28.30;70.30
37646;DHT22;23489;49.600;6.138;2022-07-23T14:16:16;28.00;70.00
37646;DHT22;23489;49.600;6.138;2022-07-23T14:18:42;28.00;70.30
37646;DHT22;23489;49.600;6.138;2022-07-23T14:21:08;28.00;69.90
37646;DHT22;23489;49.600;6.138;2022-07-23T14:23:33;28.30;70.10
37646;DHT22;23489;49.600;6.138;2022-07-23T14:25:59;28.60;69.70
37646;DHT22;23489;49.600;6.138;2022-07-23T14:28:25;28.80;69.60
37646;DHT22;23489;49.600;6.138;2022-07-23T14:30:50;28.90;69.10
37646;DHT22;23489;49.600;6.138;2022-07-23T14:33:16;28.50;68.80
37646;DHT22;23489;49.600;6.138;2022-07-23T14:35:41;28.40;69.40
37646;DHT22;23489;49.600;6.138;2022-07-23T14:38:07;28.40;70.30
37646;DHT22;23489;49.600;6.138;2022-07-23T14:40:32;28.40;70.10
37646;DHT22;23489;49.600;6.138;2022-07-23T14:42:58;28.20;70.30
37646;DHT22;23489;49.600;6.138;2022-07-23T14:45:24;28.30;70.60
37646;DHT22;23489;49.600;6.138;2022-07-23T14:47:49;28.30;70.30
37646;DHT22;23489;49.600;6.138;2022-07-23T14:50:15;28.00;70.70
37646;DHT22;23489;49.600;6.138;2022-07-23T14:52:40;27.90;71.60
37646;DHT22;23489;49.600;6.138;2022-07-23T14:55:06;28.00;71.60
37646;DHT22;23489;49.600;6.138;2022-07-23T14:57:32;28.20;71.10
37646;DHT22;23489;49.600;6.138;2022-07-23T14:59:57;28.20;70.80
37646;DHT22;23489;49.600;6.138;2022-07-23T15:02:23;28.40;70.80
37646;DHT22;23489;49.600;6.138;2022-07-23T15:04:48;28.60;69.60
37646;DHT22;23489;49.600;6.138;2022-07-23T15:07:14;28.60;69.70
37646;DHT22;23489;49.600;6.138;2022-07-23T15:09:39;28.70;69.70
37646;DHT22;23489;49.600;6.138;2022-07-23T15:12:05;29.00;69.80
37646;DHT22;23489;49.600;6.138;2022-07-23T15:14:30;29.20;69.00
37646;DHT22;23489;49.600;6.138;2022-07-23T15:16:56;29.30;68.00
37646;DHT22;23489;49.600;6.138;2022-07-23T15:19:22;29.20;67.40
37646;DHT22;23489;49.600;6.138;2022-07-23T15:21:47;29.20;67.30
37646;DHT22;23489;49.600;6.138;2022-07-23T15:24:13;28.70;65.90
37646;DHT22;23489;49.600;6.138;2022-07-23T15:26:39;28.50;66.50
37646;DHT22;23489;49.600;6.138;2022-07-23T15:29:04;28.50;67.70
37646;DHT22;23489;49.600;6.138;2022-07-23T15:31:31;28.70;68.10
37646;DHT22;23489;49.600;6.138;2022-07-23T15:33:57;28.90;67.70
37646;DHT22;23489;49.600;6.138;2022-07-23T15:36:22;28.40;68.10
37646;DHT22;23489;49.600;6.138;2022-07-23T15:38:48;28.30;68.50
37646;DHT22;23489;49.600;6.138;2022-07-23T15:41:14;27.90;68.60
37646;DHT22;23489;49.600;6.138;2022-07-23T15:43:39;28.00;69.40
37646;DHT22;23489;49.600;6.138;2022-07-23T15:46:05;28.20;69.30
37646;DHT22;23489;49.600;6.138;2022-07-23T15:48:31;28.40;69.50
37646;DHT22;23489;49.600;6.138;2022-07-23T15:50:56;28.50;69.50
37646;DHT22;23489;49.600;6.138;2022-07-23T15:53:22;28.30;69.90
37646;DHT22;23489;49.600;6.138;2022-07-23T15:55:47;28.10;69.60
37646;DHT22;23489;49.600;6.138;2022-07-23T15:58:13;28.00;69.40
37646;DHT22;23489;49.600;6.138;2022-07-23T16:00:39;27.80;67.90
37646;DHT22;23489;49.600;6.138;2022-07-23T16:03:05;27.70;68.10
37646;DHT22;23489;49.600;6.138;2022-07-23T16:05:30;27.60;68.90
37646;DHT22;23489;49.600;6.138;2022-07-23T16:07:57;27.70;68.70
37646;DHT22;23489;49.600;6.138;2022-07-23T16:10:23;27.60;69.60
37646;DHT22;23489;49.600;6.138;2022-07-23T16:12:49;27.70;70.20
37646;DHT22;23489;49.600;6.138;2022-07-23T16:15:15;27.40;70.90
37646;DHT22;23489;49.600;6.138;2022-07-23T16:17:40;27.50;71.30
37646;DHT22;23489;49.600;6.138;2022-07-23T16:20:06;27.60;72.00